Creelsboro, Kentucky
Current Conditions -  °F | °C
As of 12:56 AM on Tuesday 21 Oct 2014 (Local Time) from KEKQ Reporting Station
Clear Clear  
Wind Chill: 55°   Ceiling: Unl
Heat Index: 55°   Visibility: 10mi
Dew Point: 49°   Wind: 3mph
Humidity: 80%   Direction: 240°WSW
Pressure: 30"   Gusts: NA
Location:  36.9448°N, 85.1275°W
Report Text: KEKQ 210556Z AUTO 24003KT 10SM CLR 13/09 A3000 RMK AO2 55005 T01270094 10133 20066 SLP161
Loading
Personal Weather Stations






























Interactive Weather Map
Tropical Storm Tracking
New forecast layout! Learn more

10-Day Weather Forecast

Advertisements
Track Severe Weather on mobile